Time;durP1;ratioP1;P1;durP2;ratioP2;P2;SDS_P1;SDS_P2;PMS_P1;PMS_P2;Temp;Humidity;BMP_temperature;BMP_pressure;BME280_temperature;BME280_humidity;BME280_pressure;Samples;Min_cycle;Max_cycle;Signal;HPM_P1;HPM_P2
2021/09/25 00:00:27;;;;;;;1999.90;999.90;;;;;;;19.88;67.35;100907.97;15595777;28;20044;-59
2021/09/25 00:08:01;;;;;;;1999.90;999.90;;;;;;;19.73;67.87;100901.38;15683333;28;20068;-55
2021/09/25 00:15:34;;;;;;;1999.90;999.90;;;;;;;19.86;67.43;100896.22;15641275;28;20127;-58
2021/09/25 00:23:08;;;;;;;1999.90;999.90;;;;;;;19.89;67.21;100901.09;15656947;28;20510;-58
2021/09/25 00:30:40;;;;;;;1999.90;999.90;;;;;;;19.79;67.30;100904.66;15665353;28;20237;-56
2021/09/25 00:38:13;;;;;;;1999.90;999.90;;;;;;;19.92;66.94;100893.84;15623505;28;20083;-57
2021/09/25 00:45:46;;;;;;;1999.90;999.90;;;;;;;19.78;67.27;100897.34;15647410;28;20089;-60
2021/09/25 00:53:19;;;;;;;1999.90;999.90;;;;;;;19.79;67.08;100904.66;15661332;28;20060;-55
2021/09/25 01:00:51;;;;;;;1999.90;999.90;;;;;;;19.72;67.18;100898.94;15634253;28;20426;-56
2021/09/25 01:08:25;;;;;;;1999.90;999.90;;;;;;;19.84;67.03;100905.13;15619646;28;20135;-55
2021/09/25 01:15:58;;;;;;;1999.90;999.90;;;;;;;19.90;66.70;100914.03;15649232;28;20053;-56
2021/09/25 01:23:31;;;;;;;1999.90;999.90;;;;;;;19.91;66.78;100912.88;15622198;28;20048;-60
2021/09/25 01:31:05;;;;;;;1999.90;999.90;;;;;;;19.85;66.78;100911.59;15620626;28;20080;-57
2021/09/25 01:38:40;;;;;;;1999.90;999.90;;;;;;;19.88;66.87;100902.28;15658182;28;20111;-58
2021/09/25 01:46:12;;;;;;;1999.90;999.90;;;;;;;19.75;67.19;100900.97;15583214;22;20099;-53
2021/09/25 01:53:46;;;;;;;1999.90;999.90;;;;;;;19.86;67.25;100897.03;15549647;28;20046;-57
2021/09/25 02:01:18;;;;;;;1999.90;999.90;;;;;;;19.62;67.67;100899.66;15530556;28;20135;-55
2021/09/25 02:08:52;;;;;;;1999.90;999.90;;;;;;;19.89;67.27;100899.06;15549385;28;20046;-56
2021/09/25 02:16:24;;;;;;;1999.90;999.90;;;;;;;19.78;67.28;100906.66;15548412;28;20084;-59
2021/09/25 02:23:58;;;;;;;1999.90;999.90;;;;;;;19.71;67.34;100902.97;15548311;28;20058;-54
2021/09/25 02:31:30;;;;;;;1999.90;999.90;;;;;;;19.77;67.24;100910.69;15530300;28;20034;-58
2021/09/25 02:39:04;;;;;;;1999.90;999.90;;;;;;;19.72;67.20;100910.25;15547320;28;20134;-55
2021/09/25 02:46:36;;;;;;;1999.90;999.90;;;;;;;19.57;67.44;100924.25;15547551;28;20144;-57
2021/09/25 02:54:10;;;;;;;1999.90;999.90;;;;;;;19.73;67.08;100921.19;15513998;28;20060;-53
2021/09/25 03:01:42;;;;;;;1999.90;999.90;;;;;;;19.78;67.07;100917.19;15547581;28;20083;-55
2021/09/25 03:09:16;;;;;;;1999.90;999.90;;;;;;;19.54;67.82;100919.38;15547684;28;20052;-57
2021/09/25 03:16:48;;;;;;;1999.90;999.90;;;;;;;19.49;67.76;100921.75;15554764;28;20050;-58
2021/09/25 03:24:22;;;;;;;1999.90;999.90;;;;;;;19.74;67.11;100924.84;15558644;28;20076;-58
2021/09/25 03:31:54;;;;;;;1999.90;999.90;;;;;;;19.57;67.58;100935.59;15532093;28;20395;-59
2021/09/25 03:39:28;;;;;;;1999.90;999.90;;;;;;;19.52;68.08;100930.25;15556976;28;20041;-55
2021/09/25 03:47:00;;;;;;;1999.90;999.90;;;;;;;19.49;67.81;100941.56;15555788;28;20426;-56
2021/09/25 03:54:34;;;;;;;1999.90;999.90;;;;;;;19.67;67.52;100947.41;15555944;28;20112;-55
2021/09/25 04:02:06;;;;;;;1999.90;999.90;;;;;;;19.62;67.79;100956.28;15539293;28;20141;-57
2021/09/25 04:09:39;;;;;;;1999.90;999.90;;;;;;;19.66;67.76;100954.28;15553544;28;20053;-57
2021/09/25 04:17:12;;;;;;;1999.90;999.90;;;;;;;19.64;67.64;100948.19;15537498;28;20145;-59
2021/09/25 04:24:45;;;;;;;1999.90;999.90;;;;;;;19.62;67.89;100956.28;15535858;28;20347;-58
2021/09/25 04:32:18;;;;;;;1999.90;999.90;;;;;;;19.50;68.14;100963.81;15553173;28;20038;-57
2021/09/25 04:40:12;;;;;;;1999.90;999.90;;;;;;;19.55;68.64;100973.94;15552224;28;20128;-56
2021/09/25 04:47:46;;;;;;;1999.90;999.90;;;;;;;19.55;69.68;100982.44;15552296;28;20855;-58
2021/09/25 04:55:20;;;;;;;;;;;;;;;19.29;70.62;100981.34;15535004;28;20121;-58
2021/09/25 05:02:52;;;;;;;1999.90;999.90;;;;;;;19.16;71.32;100985.63;15533641;28;20009;-55
2021/09/25 05:10:26;;;;;;;1999.90;999.90;;;;;;;19.14;72.65;100998.53;15550777;28;20188;-60
2021/09/25 05:17:58;;;;;;;1999.90;999.90;;;;;;;19.11;73.29;101004.97;15515554;28;20483;-55
2021/09/25 05:25:32;;;;;;;1999.90;999.90;;;;;;;19.08;73.34;101000.09;15549847;28;20042;-53
2021/09/25 05:33:06;;;;;;;1999.90;999.90;;;;;;;19.22;72.62;101003.06;15549400;28;20091;-58
2021/09/25 05:40:41;;;;;;;1999.90;999.90;;;;;;;19.32;72.25;100991.09;15500292;28;20057;-56
2021/09/25 05:48:14;;;;;;;1999.90;999.90;;;;;;;19.23;72.07;100997.03;15549158;28;20133;-58
2021/09/25 05:55:48;;;;;;;1999.90;999.90;;;;;;;19.21;72.16;100999.44;15549652;28;20033;-57
2021/09/25 06:03:20;;;;;;;1999.90;999.90;;;;;;;19.33;71.61;101009.69;15549516;28;20045;-61
2021/09/25 06:10:54;;;;;;;1999.90;999.90;;;;;;;19.46;71.12;101013.06;15549030;28;20088;-59
2021/09/25 06:18:26;;;;;;;1999.90;999.90;;;;;;;19.23;72.10;101016.84;15549051;28;20092;-56
2021/09/25 06:26:07;;;;;;;1999.90;999.90;;;;;;;19.52;71.11;101023.66;15549004;28;20074;-55
2021/09/25 06:33:39;;;;;;;1999.90;999.90;;;;;;;19.48;71.74;101025.63;15548644;28;20053;-55
2021/09/25 06:41:13;;;;;;;1999.90;999.90;;;;;;;19.69;71.31;101024.25;15531041;28;20410;-58
2021/09/25 06:48:47;;;;;;;1999.90;999.90;;;;;;;19.52;71.63;101029.31;15553232;28;20037;-57
2021/09/25 06:56:20;;;;;;;1999.90;999.90;;;;;;;19.96;70.55;101031.44;15558938;28;20103;-58
2021/09/25 07:03:53;;;;;;;1999.90;999.90;;;;;;;20.22;69.96;101053.16;15559794;28;20096;-58
2021/09/25 07:11:26;;;;;;;1999.90;999.90;;;;;;;20.25;69.81;101051.53;15558334;28;20106;-60
2021/09/25 07:18:58;;;;;;;1999.90;999.90;;;;;;;20.25;69.03;101052.34;15561882;28;20096;-58
2021/09/25 07:26:32;;;;;;;1999.90;999.90;;;;;;;20.31;69.26;101064.94;15541437;28;20038;-58
2021/09/25 07:34:04;;;;;;;1999.90;999.90;;;;;;;20.11;69.68;101058.72;15557153;28;20054;-58
2021/09/25 07:41:38;;;;;;;1999.90;999.90;;;;;;;20.16;69.97;101071.69;15557139;28;20499;-58
2021/09/25 07:49:10;;;;;;;1999.90;999.90;;;;;;;20.66;69.12;101078.66;15557598;28;20137;-57
2021/09/25 07:56:44;;;;;;;1999.90;999.90;;;;;;;20.58;68.60;101096.78;15538737;28;20481;-54
2021/09/25 08:04:16;;;;;;;1999.90;999.90;;;;;;;20.88;68.12;101099.47;15551365;28;20081;-54
2021/09/25 08:11:50;;;;;;;1999.90;999.90;;;;;;;20.28;70.00;101105.41;15554774;28;20411;-52
2021/09/25 08:19:23;;;;;;;1999.90;999.90;;;;;;;20.50;70.07;101105.63;15554214;28;20617;-53
2021/09/25 08:26:56;;;;;;;1999.90;999.90;;;;;;;20.72;70.20;101105.41;15548472;28;20050;-51
2021/09/25 08:34:29;;;;;;;1999.90;999.90;;;;;;;20.90;69.62;101113.25;15515049;28;20056;-57
2021/09/25 08:42:03;;;;;;;1999.90;999.90;;;;;;;21.65;67.85;101125.06;15599079;28;20132;-57
2021/09/25 08:49:35;;;;;;;1999.90;999.90;;;;;;;21.82;66.79;101130.81;15614143;28;20103;-53
2021/09/25 08:57:09;;;;;;;1999.90;999.90;;;;;;;21.85;66.00;101130.00;15592966;28;20081;-57
2021/09/25 09:04:45;;;;;;;1999.90;999.90;;;;;;;22.21;66.30;101127.31;15555817;28;20403;-59
2021/09/25 09:12:22;;;;;;;1999.90;999.90;;;;;;;21.74;66.09;101143.34;15526107;28;20041;-58
2021/09/25 09:19:55;;;;;;;1999.90;999.90;;;;;;;21.22;67.06;101136.16;15556348;28;20073;-54
2021/09/25 09:27:29;;;;;;;1999.90;999.90;;;;;;;21.37;66.98;101137.09;15567144;28;20047;-58
2021/09/25 09:35:09;;;;;;;1999.90;999.90;;;;;;;21.55;67.00;101149.34;15534563;28;20081;-57
2021/09/25 09:42:45;;;;;;;1999.90;999.90;;;;;;;21.51;67.09;101148.53;15546598;28;20049;-56
2021/09/25 09:50:20;;;;;;;1999.90;999.90;;;;;;;21.22;68.40;101162.50;15532245;28;20121;-56
2021/09/25 09:58:02;;;;;;;1999.90;999.90;;;;;;;22.09;66.39;101162.63;15548812;28;20479;-55
2021/09/25 10:05:34;;;;;;;1999.90;999.90;;;;;;;21.98;66.36;101166.56;15531701;28;20064;-52
2021/09/25 10:13:17;;;;;;;1999.90;999.90;;;;;;;21.78;66.48;101164.09;15546393;28;20481;-55
2021/09/25 10:20:49;;;;;;;1999.90;999.90;;;;;;;21.52;67.67;101165.16;15530639;28;20038;-52
2021/09/25 10:28:28;;;;;;;1999.90;999.90;;;;;;;21.43;67.71;101178.91;15550091;28;20038;-56
2021/09/25 10:36:00;;;;;;;1999.90;999.90;;;;;;;21.61;68.67;101196.03;15551480;28;20208;-57
2021/09/25 10:43:42;;;;;;;1999.90;999.90;;;;;;;21.61;69.25;101207.41;15561572;28;20125;-56
2021/09/25 10:51:17;;;;;;;1999.90;999.90;;;;;;;21.16;73.84;101211.53;15559912;28;20046;-56
2021/09/25 10:58:58;;;;;;;1999.90;999.90;;;;;;;21.61;74.26;101198.88;15541956;28;20045;-54
2021/09/25 11:06:37;;;;;;;1999.90;999.90;;;;;;;23.44;69.97;101215.13;15559102;28;20045;-57
2021/09/25 11:14:34;;;;;;;1999.90;999.90;;;;;;;23.19;67.81;101209.50;15558869;28;20161;-56
2021/09/25 11:22:10;;;;;;;1999.90;999.90;;;;;;;23.40;67.53;101211.50;15554125;28;20060;-54
2021/09/25 11:30:12;;;;;;;1999.90;999.90;;;;;;;24.35;61.33;101212.44;15553777;28;20100;-52
2021/09/25 11:37:56;;;;;;;1999.90;999.90;;;;;;;24.98;60.80;101191.19;15575685;28;20044;-53
2021/09/25 11:45:32;;;;;;;1999.90;999.90;;;;;;;24.94;58.88;101178.22;15553409;28;20370;-54
2021/09/25 11:53:06;;;;;;;1999.90;999.90;;;;;;;26.04;54.90;101188.50;15556656;28;20057;-54
2021/09/25 12:00:45;;;;;;;1999.90;999.90;;;;;;;27.29;52.98;101198.88;15552615;28;20064;-57
2021/09/25 12:08:21;;;;;;;1999.90;999.90;;;;;;;26.19;53.92;101197.72;15559542;28;20108;-54
2021/09/25 12:15:57;;;;;;;1999.90;999.90;;;;;;;24.44;57.87;101202.19;15576492;28;20037;-53
2021/09/25 12:23:32;;;;;;;1999.90;999.90;;;;;;;24.17;59.05;101204.75;15550282;28;20459;-55
2021/09/25 12:31:08;;;;;;;1999.90;999.90;;;;;;;23.87;60.03;101207.34;15558035;28;20145;-54
2021/09/25 12:38:43;;;;;;;1999.90;999.90;;;;;;;24.06;59.91;101204.00;15556968;28;20041;-58
2021/09/25 12:46:22;;;;;;;1999.90;999.90;;;;;;;23.54;60.84;101198.03;15595433;28;20053;-53
2021/09/25 12:53:55;;;;;;;1999.90;999.90;;;;;;;24.12;59.45;101201.53;15566471;28;20144;-55
2021/09/25 13:01:31;;;;;;;1999.90;999.90;;;;;;;24.32;59.06;101211.25;15560597;28;20145;-54
2021/09/25 13:09:03;;;;;;;1999.90;999.90;;;;;;;23.86;59.75;101211.41;15544289;28;20057;-55
2021/09/25 13:16:38;;;;;;;1999.90;999.90;;;;;;;23.93;60.32;101210.56;15541656;28;20121;-56
2021/09/25 13:24:10;;;;;;;1999.90;999.90;;;;;;;24.28;60.92;101218.97;15523903;28;20517;-52
2021/09/25 13:31:44;;;;;;;1999.90;999.90;;;;;;;23.93;60.33;101211.38;15546665;28;20090;-56
2021/09/25 13:39:17;;;;;;;1999.90;999.90;;;;;;;23.94;60.70;101215.84;15521520;28;20069;-57
2021/09/25 13:46:50;;;;;;;1999.90;999.90;;;;;;;24.36;59.69;101222.63;15541295;28;20049;-57
2021/09/25 13:54:23;;;;;;;1999.90;999.90;;;;;;;24.35;59.90;101218.16;15533224;28;20129;-56
2021/09/25 14:01:56;;;;;;;1999.90;999.90;;;;;;;24.17;60.54;101213.31;15550646;28;20054;-53
2021/09/25 14:09:32;;;;;;;1999.90;999.90;;;;;;;24.08;59.82;101206.44;15531401;28;20129;-55
2021/09/25 14:17:05;;;;;;;1999.90;999.90;;;;;;;24.50;60.28;101198.94;15503278;28;20125;-56
2021/09/25 14:24:39;;;;;;;1999.90;999.90;;;;;;;24.25;60.05;101216.13;15514848;28;20050;-55
2021/09/25 14:32:13;;;;;;;1999.90;999.90;;;;;;;24.23;60.35;101212.88;15530499;28;20042;-54
2021/09/25 14:39:45;;;;;;;1999.90;999.90;;;;;;;24.01;61.10;101226.44;15542674;28;20073;-52
2021/09/25 14:47:19;;;;;;;1999.90;999.90;;;;;;;23.79;60.95;101222.84;15546677;28;20046;-54
2021/09/25 14:54:51;;;;;;;1999.90;999.90;;;;;;;24.05;61.29;101224.38;15527066;28;20049;-52
2021/09/25 15:02:25;;;;;;;1999.90;999.90;;;;;;;23.70;62.01;101226.13;15548826;28;20445;-55
2021/09/25 15:09:57;;;;;;;1999.90;999.90;;;;;;;23.58;62.50;101227.38;15534355;28;20038;-52
2021/09/25 15:17:31;;;;;;;1999.90;999.90;;;;;;;23.25;62.81;101211.53;15563824;28;20042;-53
2021/09/25 15:25:04;;;;;;;1999.90;999.90;;;;;;;23.42;63.49;101211.91;15541483;28;20076;-52
2021/09/25 15:32:38;;;;;;;1999.90;999.90;;;;;;;23.22;62.74;101208.66;15533745;28;20570;-55
2021/09/25 15:40:14;;;;;;;1999.90;999.90;;;;;;;23.08;63.38;101220.06;15553213;28;20050;-56
2021/09/25 15:47:48;;;;;;;1999.90;999.90;;;;;;;23.12;63.60;101229.41;15553166;28;20530;-55
2021/09/25 15:55:20;;;;;;;1999.90;999.90;;;;;;;23.17;63.17;101229.00;15537407;28;20050;-55
2021/09/25 16:02:54;;;;;;;1999.90;999.90;;;;;;;23.20;63.51;101248.13;15561701;28;20045;-55
2021/09/25 16:10:27;;;;;;;1999.90;999.90;;;;;;;23.08;63.82;101240.00;15534760;28;20104;-60
2021/09/25 16:18:00;;;;;;;1999.90;999.90;;;;;;;22.93;64.74;101234.31;15549712;28;20483;-61
2021/09/25 16:25:33;;;;;;;1999.90;999.90;;;;;;;22.63;66.46;101246.00;15574818;28;20080;-60
2021/09/25 16:33:06;;;;;;;1999.90;999.90;;;;;;;22.36;67.02;101242.69;15533665;28;20072;-59
2021/09/25 16:40:39;;;;;;;1999.90;999.90;;;;;;;22.11;68.32;101236.09;15552458;28;20046;-58
2021/09/25 16:48:13;;;;;;;1999.90;999.90;;;;;;;21.87;68.45;101243.25;15552774;28;20056;-60
2021/09/25 16:55:45;;;;;;;1999.90;999.90;;;;;;;21.71;68.54;101248.44;15532962;28;20068;-56
2021/09/25 17:03:19;;;;;;;1999.90;999.90;;;;;;;21.48;68.90;101257.22;15522609;28;20050;-59
2021/09/25 17:10:51;;;;;;;1999.90;999.90;;;;;;;21.40;69.07;101255.53;15527768;28;20050;-59
2021/09/25 17:18:25;;;;;;;1999.90;999.90;;;;;;;21.14;70.02;101267.84;15540999;28;20038;-54
2021/09/25 17:25:58;;;;;;;1999.90;999.90;;;;;;;20.84;70.98;101271.66;15525212;28;20041;-56
2021/09/25 17:33:32;;;;;;;1999.90;999.90;;;;;;;20.57;71.31;101282.28;15532166;28;20038;-54
2021/09/25 17:41:08;;;;;;;1999.90;999.90;;;;;;;20.36;71.96;101279.97;15549605;28;20046;-54
2021/09/25 17:48:42;;;;;;;1999.90;999.90;;;;;;;20.20;72.52;101276.53;15548478;28;20037;-52
2021/09/25 17:56:15;;;;;;;1999.90;999.90;;;;;;;20.22;72.51;101274.16;15547776;28;20368;-53
2021/09/25 18:03:48;;;;;;;1999.90;999.90;;;;;;;20.08;72.57;101280.44;15548291;28;20049;-57
2021/09/25 18:11:21;;;;;;;1999.90;999.90;;;;;;;20.00;72.77;101292.03;15548205;28;20033;-56
2021/09/25 18:18:54;;;;;;;1999.90;999.90;;;;;;;19.77;73.08;101306.28;15529165;28;20551;-58
2021/09/25 18:26:27;;;;;;;1999.90;999.90;;;;;;;19.47;73.34;101311.84;15529683;28;20072;-52
2021/09/25 18:34:00;;;;;;;1999.90;999.90;;;;;;;19.28;73.98;101315.59;15548993;28;20049;-55
2021/09/25 18:41:33;;;;;;;1999.90;999.90;;;;;;;19.07;74.33;101307.56;15530824;28;20046;-55
2021/09/25 18:49:19;;;;;;;1999.90;999.90;;;;;;;18.93;74.79;101316.56;15559180;28;20479;-56
2021/09/25 18:56:58;;;;;;;1999.90;999.90;;;;;;;18.69;75.33;101314.91;15541929;28;20484;-54
2021/09/25 19:04:31;;;;;;;1999.90;999.90;;;;;;;18.61;74.96;101306.63;15541108;28;20042;-53
2021/09/25 19:12:05;;;;;;;1999.90;999.90;;;;;;;18.53;75.01;101321.81;15531177;28;20054;-53
2021/09/25 19:19:41;;;;;;;1999.90;999.90;;;;;;;18.40;75.43;101330.44;15497100;28;20039;-56
2021/09/25 19:27:13;;;;;;;1999.90;999.90;;;;;;;18.30;75.48;101333.03;15479870;28;20088;-54
2021/09/25 19:34:47;;;;;;;1999.90;999.90;;;;;;;18.21;75.64;101326.78;15496186;28;20046;-57
2021/09/25 19:42:20;;;;;;;1999.90;999.90;;;;;;;18.03;76.15;101332.88;15478191;28;20054;-55
2021/09/25 19:49:53;;;;;;;1999.90;999.90;;;;;;;18.02;76.36;101344.50;15683322;23;20509;-58
2021/09/25 19:57:38;;;;;;;1999.90;999.90;;;;;;;17.94;76.19;101348.38;15682763;28;20064;-59
2021/09/25 20:05:19;;;;;;;1999.90;999.90;;;;;;;17.82;76.39;101347.31;15672404;28;20136;-56
2021/09/25 20:13:07;;;;;;;1999.90;999.90;;;;;;;17.69;76.27;101345.78;15664793;28;20456;-60
2021/09/25 20:21:07;;;;;;;1999.90;999.90;;;;;;;17.59;76.40;101347.13;15681904;28;20041;-60
2021/09/25 20:28:57;;;;;;;1999.90;999.90;;;;;;;17.44;76.59;101347.13;15681689;28;20048;-60
2021/09/25 20:36:31;;;;;;;1999.90;999.90;;;;;;;17.38;76.55;101337.31;15663787;28;20379;-57
2021/09/25 20:44:04;;;;;;;1999.90;999.90;;;;;;;17.23;76.33;101342.59;15646157;28;20056;-57
2021/09/25 20:51:39;;;;;;;1999.90;999.90;;;;;;;17.18;76.08;101354.13;15680500;28;20119;-57
2021/09/25 20:59:11;;;;;;;1999.90;999.90;;;;;;;17.05;76.14;101352.56;15662350;28;20414;-60
2021/09/25 21:06:45;;;;;;;1999.90;999.90;;;;;;;16.95;76.54;101361.56;15679548;28;20497;-60
2021/09/25 21:14:17;;;;;;;1999.90;999.90;;;;;;;16.79;76.99;101355.91;15678972;28;20045;-56
2021/09/25 21:21:50;;;;;;;1999.90;999.90;;;;;;;16.80;76.46;101354.72;15679834;28;20041;-57
2021/09/25 21:29:23;;;;;;;1999.90;999.90;;;;;;;16.68;76.73;101351.97;15679267;28;20083;-62
2021/09/25 21:36:56;;;;;;;1999.90;999.90;;;;;;;16.58;76.84;101369.34;15678283;28;20048;-61
2021/09/25 21:44:29;;;;;;;1999.90;999.90;;;;;;;16.60;76.28;101362.16;15667684;28;20041;-61
2021/09/25 21:52:03;;;;;;;1999.90;999.90;;;;;;;16.47;76.82;101374.69;15678924;28;20045;-60
2021/09/25 21:59:36;;;;;;;1999.90;999.90;;;;;;;16.38;77.20;101371.19;15647353;28;20493;-62
2021/09/25 22:07:09;;;;;;;1999.90;999.90;;;;;;;16.35;77.11;101375.50;15660578;28;20040;-61
2021/09/25 22:14:41;;;;;;;1999.90;999.90;;;;;;;16.41;77.17;101384.53;15642827;28;20282;-57
2021/09/25 22:22:15;;;;;;;1999.90;999.90;;;;;;;16.43;76.84;101383.00;15686806;28;20409;-59
2021/09/25 22:29:48;;;;;;;1999.90;999.90;;;;;;;16.43;77.34;101391.44;15661127;28;20037;-58
2021/09/25 22:37:34;;;;;;;1999.90;999.90;;;;;;;16.58;78.02;101395.53;15679522;28;20118;-58
2021/09/25 22:45:09;;;;;;;1999.90;999.90;;;;;;;16.71;78.43;101385.88;15687778;28;20095;-58
2021/09/25 22:52:42;;;;;;;1999.90;999.90;;;;;;;16.88;78.61;101384.75;15685434;28;20070;-57
2021/09/25 23:00:16;;;;;;;1999.90;999.90;;;;;;;16.96;79.49;101386.56;15653634;28;20485;-56
2021/09/25 23:07:49;;;;;;;;;;;;;;;17.21;79.06;101378.81;15668725;28;20387;-59
2021/09/25 23:15:21;;;;;;;;;;;;;;;17.20;79.11;101379.16;15674054;28;20359;-59
2021/09/25 23:22:55;;;;;;;1999.90;999.90;;;;;;;17.27;79.24;101380.16;15656692;28;19920;-57
2021/09/25 23:30:27;;;;;;;1999.90;999.90;;;;;;;17.28;78.62;101380.97;15685509;28;20037;-60
2021/09/25 23:38:01;;;;;;;1999.90;999.90;;;;;;;17.14;79.13;101389.06;15665907;28;20068;-60
2021/09/25 23:45:33;;;;;;;1999.90;999.90;;;;;;;17.26;78.56;101389.81;15684178;28;20045;-57
2021/09/25 23:53:07;;;;;;;1999.90;999.90;;;;;;;17.28;79.03;101395.88;15665463;28;20068;-57
